Chicago, Illinois
Current Conditions -  °F | °C
As of 12:53 AM on Monday 22 Dec 2014 (Local Time) from KMDW Reporting Station
Broken Clouds Broken Clouds  
Wind Chill: 26°   Ceiling: 18000
Heat Index: 34°   Visibility: 10mi
Dew Point: 28°   Wind: 10mph
Humidity: 79%   Direction: 150°SSE
Pressure: 30"   Gusts: NA
Location:  41.88°N, 87.63°W
Report Text: KMDW 220653Z 15009KT 10SM FEW037 BKN180 01/M02 A3000 RMK AO2 SLP168 T00111022 $
Loading
Personal Weather Stations






























Interactive Weather Map New forecast layout! Learn more

10-Day Weather Forecast

Advertisements
Track Severe Weather on mobile